This is the latest recevied weather packets stored in our database for station/object KD8OZS. If no packets are shown the sender has not sent any weather packets the latest 10 day(s).
| Time | Temp. | Humidity | Pressure | Rain* | Wind** | Luminosity | Snow |
|---|---|---|---|---|---|---|---|
| 1787930649 | 22.22° C | 82% | 1013.9 hPa | 0 mm | - | 143 W/m² | - |
| 1787930344 | 22.78° C | 81% | 1013.7 hPa | 0 mm | - | 191 W/m² | - |
| 1787930039 | 22.78° C | 81% | 1013.7 hPa | 0 mm | - | 342 W/m² | - |
| 1787929737 | 22.22° C | 82% | 1013.5 hPa | 0 mm | - | 296 W/m² | - |
| 1787929433 | 21.67° C | 82% | 1013.6 hPa | 0 mm | - | 363 W/m² | - |
| 1787929130 | 21.67° C | 83% | 1013.6 hPa | 0 mm | - | 266 W/m² | - |
| 1787928826 | 21.67° C | 84% | 1013.6 hPa | 0 mm | - | 229 W/m² | - |
| 1787928525 | 21.11° C | 85% | 1013.3 hPa | 0 mm | - | 230 W/m² | - |
| 1787928224 | 21.11° C | 86% | 1013.4 hPa | 0 mm | - | 180 W/m² | - |
| 1787927923 | 21.11° C | 86% | 1013.4 hPa | 0 mm | - | 170 W/m² | - |
| 1787927618 | 21.11° C | 86% | 1013.5 hPa | 0 mm | - | 189 W/m² | - |
| 1787927313 | 21.11° C | 87% | 1013.4 hPa | 0 mm | - | 177 W/m² | - |
| 1787927009 | 21.11° C | 87% | 1013.2 hPa | 0 mm | - | 178 W/m² | - |
| 1787926708 | 21.11° C | 87% | 1013.3 hPa | 0 mm | - | 345 W/m² | - |
| 1787926407 | 21.11° C | 87% | 1013.3 hPa | 0 mm | - | 269 W/m² | - |
| 1787926102 | 21.11° C | 88% | 1013.1 hPa | 0 mm | - | 179 W/m² | - |
| 1787925801 | 21.11° C | 88% | 1013.3 hPa | 0 mm | - | 238 W/m² | - |
| 1787925501 | 21.11° C | 88% | 1013.2 hPa | 0 mm | - | 270 W/m² | - |
| 1787925196 | 21.11° C | 88% | 1013.1 hPa | 0 mm | - | 446 W/m² | - |
| 1787924895 | 20.56° C | 88% | 1013.2 hPa | 0 mm | - | 489 W/m² | - |
| 1787924590 | 20.56° C | 88% | 1013.2 hPa | 0 mm | - | 243 W/m² | - |
| 1787924285 | 20.56° C | 88% | 1013.1 hPa | 0 mm | - | 306 W/m² | - |
| 1787923980 | 20° C | 91% | 1013 hPa | 0 mm | - | 270 W/m² | - |
| 1787923680 | 19.44° C | 95% | 1012.9 hPa | 0 mm | - | 295 W/m² | - |
| 1787923375 | 18.89° C | 97% | 1012.9 hPa | 0 mm | - | 321 W/m² | - |
* Rain latest hour (hover to see other rain measurements)
** Current wind speed in m/s (hover to see current wind gust speed)